sensor_id;sensor_type;location;lat;lon;timestamp;P1;durP1;ratioP1;P2;durP2;ratioP2
19883;SDS011;10104;50.732;10.174;2023-08-12T00:01:38;5.13;;;2.80;;
19883;SDS011;10104;50.732;10.174;2023-08-12T00:03:59;8.73;;;2.72;;
19883;SDS011;10104;50.732;10.174;2023-08-12T00:06:21;4.70;;;3.00;;
19883;SDS011;10104;50.732;10.174;2023-08-12T00:08:42;4.13;;;2.78;;
19883;SDS011;10104;50.732;10.174;2023-08-12T00:11:04;7.95;;;3.00;;
19883;SDS011;10104;50.732;10.174;2023-08-12T00:13:26;3.08;;;2.55;;
19883;SDS011;10104;50.732;10.174;2023-08-12T00:15:47;3.28;;;2.65;;
19883;SDS011;10104;50.732;10.174;2023-08-12T00:18:09;6.93;;;2.47;;
19883;SDS011;10104;50.732;10.174;2023-08-12T00:20:30;4.63;;;2.45;;
19883;SDS011;10104;50.732;10.174;2023-08-12T00:22:52;5.22;;;2.50;;
19883;SDS011;10104;50.732;10.174;2023-08-12T00:25:14;5.70;;;2.85;;
19883;SDS011;10104;50.732;10.174;2023-08-12T00:27:36;6.55;;;2.72;;
19883;SDS011;10104;50.732;10.174;2023-08-12T00:29:59;6.35;;;2.63;;
19883;SDS011;10104;50.732;10.174;2023-08-12T00:32:20;7.90;;;2.70;;
19883;SDS011;10104;50.732;10.174;2023-08-12T00:34:42;7.07;;;3.38;;
19883;SDS011;10104;50.732;10.174;2023-08-12T00:37:04;4.68;;;2.90;;
19883;SDS011;10104;50.732;10.174;2023-08-12T00:39:25;8.02;;;3.05;;
19883;SDS011;10104;50.732;10.174;2023-08-12T00:41:47;5.47;;;3.05;;
19883;SDS011;10104;50.732;10.174;2023-08-12T00:44:09;5.18;;;3.00;;
19883;SDS011;10104;50.732;10.174;2023-08-12T00:46:30;8.68;;;3.17;;
19883;SDS011;10104;50.732;10.174;2023-08-12T00:48:53;6.00;;;2.80;;
19883;SDS011;10104;50.732;10.174;2023-08-12T00:51:15;5.38;;;2.75;;
19883;SDS011;10104;50.732;10.174;2023-08-12T00:53:37;5.40;;;2.80;;
19883;SDS011;10104;50.732;10.174;2023-08-12T00:55:59;6.63;;;2.60;;
19883;SDS011;10104;50.732;10.174;2023-08-12T00:58:21;5.30;;;2.65;;
19883;SDS011;10104;50.732;10.174;2023-08-12T01:00:42;6.20;;;2.60;;
19883;SDS011;10104;50.732;10.174;2023-08-12T01:03:04;6.05;;;2.70;;
19883;SDS011;10104;50.732;10.174;2023-08-12T01:05:27;5.65;;;2.80;;
19883;SDS011;10104;50.732;10.174;2023-08-12T01:07:51;7.75;;;3.15;;
19883;SDS011;10104;50.732;10.174;2023-08-12T01:10:14;7.60;;;2.88;;
19883;SDS011;10104;50.732;10.174;2023-08-12T01:12:41;7.50;;;3.25;;
19883;SDS011;10104;50.732;10.174;2023-08-12T01:15:13;5.82;;;3.17;;
19883;SDS011;10104;50.732;10.174;2023-08-12T01:17:37;5.65;;;3.20;;
19883;SDS011;10104;50.732;10.174;2023-08-12T01:20:02;10.02;;;3.10;;
19883;SDS011;10104;50.732;10.174;2023-08-12T01:22:34;5.13;;;3.03;;
19883;SDS011;10104;50.732;10.174;2023-08-12T01:25:00;5.00;;;2.50;;
19883;SDS011;10104;50.732;10.174;2023-08-12T01:27:22;5.85;;;2.78;;
19883;SDS011;10104;50.732;10.174;2023-08-12T01:29:48;6.70;;;2.60;;
19883;SDS011;10104;50.732;10.174;2023-08-12T01:35:07;4.68;;;2.63;;
19883;SDS011;10104;50.732;10.174;2023-08-12T01:37:37;4.32;;;2.75;;
19883;SDS011;10104;50.732;10.174;2023-08-12T01:40:00;8.57;;;3.13;;
19883;SDS011;10104;50.732;10.174;2023-08-12T01:42:27;6.82;;;3.30;;
19883;SDS011;10104;50.732;10.174;2023-08-12T01:44:50;4.80;;;3.08;;
19883;SDS011;10104;50.732;10.174;2023-08-12T01:47:11;5.55;;;3.03;;
19883;SDS011;10104;50.732;10.174;2023-08-12T01:49:33;6.95;;;2.67;;
19883;SDS011;10104;50.732;10.174;2023-08-12T01:51:55;4.93;;;2.90;;
19883;SDS011;10104;50.732;10.174;2023-08-12T01:54:17;5.82;;;2.78;;
19883;SDS011;10104;50.732;10.174;2023-08-12T01:56:38;3.97;;;3.25;;
19883;SDS011;10104;50.732;10.174;2023-08-12T01:59:00;6.60;;;2.75;;
19883;SDS011;10104;50.732;10.174;2023-08-12T02:01:21;5.93;;;3.28;;
19883;SDS011;10104;50.732;10.174;2023-08-12T02:03:43;5.32;;;3.00;;
19883;SDS011;10104;50.732;10.174;2023-08-12T02:06:05;3.72;;;2.88;;
19883;SDS011;10104;50.732;10.174;2023-08-12T02:08:26;5.72;;;2.75;;
19883;SDS011;10104;50.732;10.174;2023-08-12T02:10:48;8.80;;;3.55;;
19883;SDS011;10104;50.732;10.174;2023-08-12T02:13:09;5.85;;;2.92;;
19883;SDS011;10104;50.732;10.174;2023-08-12T02:15:31;4.10;;;2.60;;
19883;SDS011;10104;50.732;10.174;2023-08-12T02:17:52;4.63;;;2.97;;
19883;SDS011;10104;50.732;10.174;2023-08-12T02:20:14;5.82;;;2.72;;
19883;SDS011;10104;50.732;10.174;2023-08-12T02:22:35;6.22;;;3.20;;
19883;SDS011;10104;50.732;10.174;2023-08-12T02:24:58;5.55;;;2.88;;
19883;SDS011;10104;50.732;10.174;2023-08-12T02:27:19;5.60;;;3.67;;
19883;SDS011;10104;50.732;10.174;2023-08-12T02:29:41;4.53;;;3.10;;
19883;SDS011;10104;50.732;10.174;2023-08-12T02:32:03;4.22;;;2.83;;
19883;SDS011;10104;50.732;10.174;2023-08-12T02:34:25;5.93;;;2.90;;
19883;SDS011;10104;50.732;10.174;2023-08-12T02:36:46;5.80;;;2.83;;
19883;SDS011;10104;50.732;10.174;2023-08-12T02:39:08;7.07;;;3.42;;
19883;SDS011;10104;50.732;10.174;2023-08-12T02:41:29;4.97;;;3.30;;
19883;SDS011;10104;50.732;10.174;2023-08-12T02:43:51;5.20;;;2.88;;
19883;SDS011;10104;50.732;10.174;2023-08-12T02:46:13;6.75;;;3.25;;
19883;SDS011;10104;50.732;10.174;2023-08-12T02:48:36;11.98;;;3.53;;
19883;SDS011;10104;50.732;10.174;2023-08-12T02:50:58;6.07;;;2.67;;
19883;SDS011;10104;50.732;10.174;2023-08-12T02:53:19;5.38;;;3.20;;
19883;SDS011;10104;50.732;10.174;2023-08-12T02:55:41;5.63;;;2.85;;
19883;SDS011;10104;50.732;10.174;2023-08-12T02:58:02;5.55;;;3.47;;
19883;SDS011;10104;50.732;10.174;2023-08-12T03:00:24;9.18;;;3.83;;
19883;SDS011;10104;50.732;10.174;2023-08-12T03:02:46;3.67;;;2.97;;
19883;SDS011;10104;50.732;10.174;2023-08-12T03:05:07;6.63;;;3.38;;
19883;SDS011;10104;50.732;10.174;2023-08-12T03:07:29;5.63;;;3.03;;
19883;SDS011;10104;50.732;10.174;2023-08-12T03:09:51;7.18;;;3.35;;
19883;SDS011;10104;50.732;10.174;2023-08-12T03:12:12;4.82;;;3.20;;
19883;SDS011;10104;50.732;10.174;2023-08-12T03:14:34;4.55;;;2.70;;
19883;SDS011;10104;50.732;10.174;2023-08-12T03:16:55;3.13;;;2.83;;
19883;SDS011;10104;50.732;10.174;2023-08-12T03:19:17;5.82;;;3.22;;
19883;SDS011;10104;50.732;10.174;2023-08-12T03:21:38;5.65;;;3.15;;
19883;SDS011;10104;50.732;10.174;2023-08-12T03:24:00;4.07;;;2.78;;
19883;SDS011;10104;50.732;10.174;2023-08-12T03:26:21;5.88;;;2.95;;
19883;SDS011;10104;50.732;10.174;2023-08-12T03:28:43;4.05;;;2.50;;
19883;SDS011;10104;50.732;10.174;2023-08-12T03:31:04;5.50;;;2.65;;
19883;SDS011;10104;50.732;10.174;2023-08-12T03:33:26;5.22;;;2.90;;
19883;SDS011;10104;50.732;10.174;2023-08-12T03:35:47;4.00;;;2.78;;
19883;SDS011;10104;50.732;10.174;2023-08-12T03:38:09;4.25;;;2.83;;
19883;SDS011;10104;50.732;10.174;2023-08-12T03:40:32;7.32;;;2.75;;
19883;SDS011;10104;50.732;10.174;2023-08-12T03:42:53;4.10;;;2.78;;
19883;SDS011;10104;50.732;10.174;2023-08-12T03:45:14;5.07;;;3.10;;
19883;SDS011;10104;50.732;10.174;2023-08-12T03:47:36;5.15;;;3.10;;
19883;SDS011;10104;50.732;10.174;2023-08-12T03:49:57;7.30;;;3.63;;
19883;SDS011;10104;50.732;10.174;2023-08-12T03:52:19;6.25;;;3.15;;
19883;SDS011;10104;50.732;10.174;2023-08-12T03:54:40;3.85;;;3.08;;
19883;SDS011;10104;50.732;10.174;2023-08-12T03:57:02;5.57;;;2.92;;
19883;SDS011;10104;50.732;10.174;2023-08-12T03:59:24;7.78;;;2.83;;
19883;SDS011;10104;50.732;10.174;2023-08-12T04:01:45;4.05;;;3.03;;
19883;SDS011;10104;50.732;10.174;2023-08-12T04:04:07;3.25;;;2.85;;
19883;SDS011;10104;50.732;10.174;2023-08-12T04:06:28;6.82;;;2.90;;
19883;SDS011;10104;50.732;10.174;2023-08-12T04:08:50;6.72;;;3.50;;
19883;SDS011;10104;50.732;10.174;2023-08-12T04:11:11;4.88;;;3.30;;
19883;SDS011;10104;50.732;10.174;2023-08-12T04:13:33;4.45;;;2.97;;
19883;SDS011;10104;50.732;10.174;2023-08-12T04:15:54;6.43;;;3.20;;
19883;SDS011;10104;50.732;10.174;2023-08-12T04:18:16;5.03;;;3.55;;
19883;SDS011;10104;50.732;10.174;2023-08-12T04:20:37;3.97;;;3.35;;
19883;SDS011;10104;50.732;10.174;2023-08-12T04:23:00;6.03;;;3.17;;
19883;SDS011;10104;50.732;10.174;2023-08-12T04:25:21;3.80;;;3.10;;
19883;SDS011;10104;50.732;10.174;2023-08-12T04:27:43;3.85;;;3.40;;
19883;SDS011;10104;50.732;10.174;2023-08-12T04:30:05;4.47;;;3.25;;
19883;SDS011;10104;50.732;10.174;2023-08-12T04:32:27;3.83;;;3.38;;
19883;SDS011;10104;50.732;10.174;2023-08-12T04:34:49;4.85;;;3.15;;
19883;SDS011;10104;50.732;10.174;2023-08-12T04:37:10;7.63;;;3.17;;
19883;SDS011;10104;50.732;10.174;2023-08-12T04:39:33;6.22;;;3.20;;
19883;SDS011;10104;50.732;10.174;2023-08-12T04:41:54;7.35;;;3.70;;
19883;SDS011;10104;50.732;10.174;2023-08-12T04:44:16;6.65;;;3.53;;
19883;SDS011;10104;50.732;10.174;2023-08-12T04:46:37;8.32;;;3.53;;
19883;SDS011;10104;50.732;10.174;2023-08-12T04:48:59;7.30;;;3.55;;
19883;SDS011;10104;50.732;10.174;2023-08-12T04:51:21;6.18;;;3.70;;
19883;SDS011;10104;50.732;10.174;2023-08-12T04:53:42;6.40;;;3.75;;
19883;SDS011;10104;50.732;10.174;2023-08-12T04:56:04;5.55;;;3.85;;
19883;SDS011;10104;50.732;10.174;2023-08-12T04:58:25;6.43;;;3.80;;
19883;SDS011;10104;50.732;10.174;2023-08-12T05:00:47;7.95;;;4.10;;
19883;SDS011;10104;50.732;10.174;2023-08-12T05:03:08;4.07;;;3.17;;
19883;SDS011;10104;50.732;10.174;2023-08-12T05:05:30;4.68;;;3.08;;
19883;SDS011;10104;50.732;10.174;2023-08-12T05:07:51;4.28;;;2.97;;
19883;SDS011;10104;50.732;10.174;2023-08-12T05:10:13;4.15;;;3.75;;
19883;SDS011;10104;50.732;10.174;2023-08-12T05:12:35;7.50;;;3.75;;
19883;SDS011;10104;50.732;10.174;2023-08-12T05:14:56;4.22;;;3.80;;
19883;SDS011;10104;50.732;10.174;2023-08-12T05:17:18;5.53;;;4.05;;
19883;SDS011;10104;50.732;10.174;2023-08-12T05:19:39;8.20;;;4.50;;
19883;SDS011;10104;50.732;10.174;2023-08-12T05:22:01;4.63;;;4.20;;
19883;SDS011;10104;50.732;10.174;2023-08-12T05:24:22;7.03;;;4.47;;
19883;SDS011;10104;50.732;10.174;2023-08-12T05:26:44;4.70;;;4.20;;
19883;SDS011;10104;50.732;10.174;2023-08-12T05:29:06;5.55;;;3.92;;
19883;SDS011;10104;50.732;10.174;2023-08-12T05:31:27;4.80;;;4.30;;
19883;SDS011;10104;50.732;10.174;2023-08-12T05:33:49;5.35;;;4.22;;
19883;SDS011;10104;50.732;10.174;2023-08-12T05:36:10;14.70;;;9.38;;
19883;SDS011;10104;50.732;10.174;2023-08-12T05:38:32;10.23;;;6.57;;
19883;SDS011;10104;50.732;10.174;2023-08-12T05:40:53;6.63;;;5.68;;
19883;SDS011;10104;50.732;10.174;2023-08-12T05:43:15;7.65;;;5.00;;
19883;SDS011;10104;50.732;10.174;2023-08-12T05:45:36;5.18;;;4.43;;
19883;SDS011;10104;50.732;10.174;2023-08-12T05:47:58;8.70;;;4.85;;
19883;SDS011;10104;50.732;10.174;2023-08-12T05:50:20;7.00;;;4.90;;
19883;SDS011;10104;50.732;10.174;2023-08-12T05:52:41;8.18;;;5.82;;
19883;SDS011;10104;50.732;10.174;2023-08-12T05:55:04;6.63;;;5.05;;
19883;SDS011;10104;50.732;10.174;2023-08-12T05:57:26;7.55;;;5.15;;
19883;SDS011;10104;50.732;10.174;2023-08-12T05:59:50;5.78;;;5.10;;
19883;SDS011;10104;50.732;10.174;2023-08-12T06:02:11;7.28;;;5.65;;
19883;SDS011;10104;50.732;10.174;2023-08-12T06:04:33;6.32;;;4.75;;
19883;SDS011;10104;50.732;10.174;2023-08-12T06:06:55;7.43;;;5.07;;
19883;SDS011;10104;50.732;10.174;2023-08-12T06:09:16;7.65;;;4.38;;
19883;SDS011;10104;50.732;10.174;2023-08-12T06:11:38;5.65;;;4.28;;
19883;SDS011;10104;50.732;10.174;2023-08-12T06:13:59;4.80;;;4.13;;
19883;SDS011;10104;50.732;10.174;2023-08-12T06:16:21;4.47;;;4.07;;
19883;SDS011;10104;50.732;10.174;2023-08-12T06:18:42;7.13;;;4.68;;
19883;SDS011;10104;50.732;10.174;2023-08-12T06:21:04;5.30;;;4.50;;
19883;SDS011;10104;50.732;10.174;2023-08-12T06:23:25;6.93;;;4.30;;
19883;SDS011;10104;50.732;10.174;2023-08-12T06:25:48;5.60;;;4.22;;
19883;SDS011;10104;50.732;10.174;2023-08-12T06:28:09;6.28;;;4.63;;
19883;SDS011;10104;50.732;10.174;2023-08-12T06:30:31;6.00;;;4.10;;
19883;SDS011;10104;50.732;10.174;2023-08-12T06:32:52;7.47;;;4.28;;
19883;SDS011;10104;50.732;10.174;2023-08-12T06:35:14;4.80;;;4.30;;
19883;SDS011;10104;50.732;10.174;2023-08-12T06:37:35;7.07;;;4.57;;
19883;SDS011;10104;50.732;10.174;2023-08-12T06:39:57;4.70;;;4.30;;
19883;SDS011;10104;50.732;10.174;2023-08-12T06:42:18;4.72;;;4.32;;
19883;SDS011;10104;50.732;10.174;2023-08-12T06:44:40;5.88;;;4.07;;
19883;SDS011;10104;50.732;10.174;2023-08-12T06:47:01;6.90;;;4.20;;
19883;SDS011;10104;50.732;10.174;2023-08-12T06:49:23;4.50;;;3.83;;
19883;SDS011;10104;50.732;10.174;2023-08-12T06:51:44;5.97;;;3.72;;
19883;SDS011;10104;50.732;10.174;2023-08-12T06:54:06;7.72;;;5.55;;
19883;SDS011;10104;50.732;10.174;2023-08-12T06:56:27;9.40;;;6.45;;
19883;SDS011;10104;50.732;10.174;2023-08-12T06:58:49;6.10;;;5.50;;
19883;SDS011;10104;50.732;10.174;2023-08-12T07:01:10;5.28;;;4.80;;
19883;SDS011;10104;50.732;10.174;2023-08-12T07:03:35;8.32;;;4.75;;
19883;SDS011;10104;50.732;10.174;2023-08-12T07:05:57;6.57;;;4.13;;
19883;SDS011;10104;50.732;10.174;2023-08-12T07:08:18;6.45;;;4.70;;
19883;SDS011;10104;50.732;10.174;2023-08-12T07:10:40;6.43;;;4.63;;
19883;SDS011;10104;50.732;10.174;2023-08-12T07:13:02;6.10;;;4.38;;
19883;SDS011;10104;50.732;10.174;2023-08-12T07:15:24;8.93;;;4.60;;
19883;SDS011;10104;50.732;10.174;2023-08-12T07:17:46;7.53;;;4.72;;
19883;SDS011;10104;50.732;10.174;2023-08-12T07:20:07;6.65;;;4.20;;
19883;SDS011;10104;50.732;10.174;2023-08-12T07:22:29;5.90;;;3.80;;
19883;SDS011;10104;50.732;10.174;2023-08-12T07:24:50;5.13;;;4.63;;
19883;SDS011;10104;50.732;10.174;2023-08-12T07:27:13;4.85;;;3.90;;
19883;SDS011;10104;50.732;10.174;2023-08-12T07:29:35;6.55;;;4.32;;
19883;SDS011;10104;50.732;10.174;2023-08-12T07:31:56;7.72;;;4.43;;
19883;SDS011;10104;50.732;10.174;2023-08-12T07:34:18;7.88;;;4.40;;
19883;SDS011;10104;50.732;10.174;2023-08-12T07:36:39;6.82;;;4.03;;
19883;SDS011;10104;50.732;10.174;2023-08-12T07:39:01;7.00;;;3.75;;
19883;SDS011;10104;50.732;10.174;2023-08-12T07:41:23;4.38;;;3.97;;
19883;SDS011;10104;50.732;10.174;2023-08-12T07:43:48;4.15;;;3.72;;
19883;SDS011;10104;50.732;10.174;2023-08-12T07:46:10;4.00;;;3.63;;
19883;SDS011;10104;50.732;10.174;2023-08-12T07:48:31;6.25;;;4.07;;
19883;SDS011;10104;50.732;10.174;2023-08-12T07:50:56;5.38;;;4.05;;
19883;SDS011;10104;50.732;10.174;2023-08-12T07:53:18;4.80;;;3.78;;
19883;SDS011;10104;50.732;10.174;2023-08-12T07:55:40;5.75;;;3.80;;
19883;SDS011;10104;50.732;10.174;2023-08-12T07:58:02;4.10;;;3.80;;
19883;SDS011;10104;50.732;10.174;2023-08-12T08:00:25;5.75;;;3.70;;
19883;SDS011;10104;50.732;10.174;2023-08-12T08:02:47;5.32;;;4.03;;
19883;SDS011;10104;50.732;10.174;2023-08-12T08:05:08;5.85;;;3.80;;
19883;SDS011;10104;50.732;10.174;2023-08-12T08:07:30;7.60;;;3.70;;
19883;SDS011;10104;50.732;10.174;2023-08-12T08:09:52;3.63;;;3.00;;
19883;SDS011;10104;50.732;10.174;2023-08-12T08:12:13;5.13;;;3.80;;
19883;SDS011;10104;50.732;10.174;2023-08-12T08:14:35;3.97;;;3.50;;
19883;SDS011;10104;50.732;10.174;2023-08-12T08:16:58;4.40;;;4.00;;
19883;SDS011;10104;50.732;10.174;2023-08-12T08:19:19;4.18;;;3.78;;
19883;SDS011;10104;50.732;10.174;2023-08-12T08:21:41;5.25;;;3.88;;
19883;SDS011;10104;50.732;10.174;2023-08-12T08:24:02;6.15;;;3.72;;
19883;SDS011;10104;50.732;10.174;2023-08-12T08:26:24;7.75;;;3.90;;
19883;SDS011;10104;50.732;10.174;2023-08-12T08:28:46;5.15;;;3.78;;
19883;SDS011;10104;50.732;10.174;2023-08-12T08:31:09;5.13;;;3.85;;
19883;SDS011;10104;50.732;10.174;2023-08-12T08:33:31;5.72;;;3.72;;
19883;SDS011;10104;50.732;10.174;2023-08-12T08:35:53;4.95;;;3.70;;
19883;SDS011;10104;50.732;10.174;2023-08-12T08:38:15;5.07;;;3.90;;
19883;SDS011;10104;50.732;10.174;2023-08-12T08:40:36;5.35;;;3.50;;
19883;SDS011;10104;50.732;10.174;2023-08-12T08:43:00;4.30;;;3.60;;
19883;SDS011;10104;50.732;10.174;2023-08-12T08:45:26;6.85;;;3.83;;
19883;SDS011;10104;50.732;10.174;2023-08-12T08:47:49;4.88;;;3.90;;
19883;SDS011;10104;50.732;10.174;2023-08-12T08:50:13;4.07;;;3.67;;
19883;SDS011;10104;50.732;10.174;2023-08-12T08:52:35;5.00;;;3.72;;
19883;SDS011;10104;50.732;10.174;2023-08-12T08:55:00;6.90;;;3.92;;
19883;SDS011;10104;50.732;10.174;2023-08-12T08:57:27;6.10;;;3.72;;
19883;SDS011;10104;50.732;10.174;2023-08-12T09:00:08;11.55;;;3.90;;
19883;SDS011;10104;50.732;10.174;2023-08-12T09:02:33;7.15;;;3.75;;
19883;SDS011;10104;50.732;10.174;2023-08-12T09:04:56;5.50;;;3.72;;
19883;SDS011;10104;50.732;10.174;2023-08-12T09:07:19;5.68;;;3.70;;
19883;SDS011;10104;50.732;10.174;2023-08-12T09:09:44;5.28;;;3.58;;
19883;SDS011;10104;50.732;10.174;2023-08-12T09:12:09;7.70;;;3.97;;
19883;SDS011;10104;50.732;10.174;2023-08-12T09:14:36;7.80;;;3.97;;
19883;SDS011;10104;50.732;10.174;2023-08-12T09:16:57;6.68;;;4.10;;
19883;SDS011;10104;50.732;10.174;2023-08-12T09:19:19;4.18;;;3.80;;
19883;SDS011;10104;50.732;10.174;2023-08-12T09:21:41;6.70;;;3.60;;
19883;SDS011;10104;50.732;10.174;2023-08-12T09:24:03;4.53;;;3.75;;
19883;SDS011;10104;50.732;10.174;2023-08-12T09:26:29;5.78;;;3.83;;
19883;SDS011;10104;50.732;10.174;2023-08-12T09:28:51;4.70;;;4.05;;
19883;SDS011;10104;50.732;10.174;2023-08-12T09:31:22;6.28;;;3.75;;
19883;SDS011;10104;50.732;10.174;2023-08-12T09:33:45;5.22;;;3.83;;
19883;SDS011;10104;50.732;10.174;2023-08-12T09:36:07;5.60;;;4.13;;
19883;SDS011;10104;50.732;10.174;2023-08-12T09:38:29;5.93;;;3.90;;
19883;SDS011;10104;50.732;10.174;2023-08-12T09:40:51;6.07;;;3.97;;
19883;SDS011;10104;50.732;10.174;2023-08-12T09:43:13;6.97;;;3.90;;
19883;SDS011;10104;50.732;10.174;2023-08-12T09:45:38;5.53;;;3.95;;
19883;SDS011;10104;50.732;10.174;2023-08-12T09:47:59;5.18;;;4.18;;
19883;SDS011;10104;50.732;10.174;2023-08-12T09:50:22;5.93;;;3.90;;
19883;SDS011;10104;50.732;10.174;2023-08-12T09:52:44;6.45;;;4.00;;
19883;SDS011;10104;50.732;10.174;2023-08-12T09:55:07;4.75;;;3.28;;
19883;SDS011;10104;50.732;10.174;2023-08-12T09:57:29;6.85;;;3.28;;
19883;SDS011;10104;50.732;10.174;2023-08-12T09:59:54;6.78;;;3.67;;
19883;SDS011;10104;50.732;10.174;2023-08-12T10:02:18;4.72;;;3.42;;
19883;SDS011;10104;50.732;10.174;2023-08-12T10:04:41;3.55;;;3.25;;
19883;SDS011;10104;50.732;10.174;2023-08-12T10:07:06;4.47;;;3.38;;
19883;SDS011;10104;50.732;10.174;2023-08-12T10:09:28;5.78;;;3.60;;
19883;SDS011;10104;50.732;10.174;2023-08-12T10:11:51;15.15;;;4.35;;
19883;SDS011;10104;50.732;10.174;2023-08-12T10:14:14;7.55;;;3.67;;
19883;SDS011;10104;50.732;10.174;2023-08-12T10:16:36;15.50;;;4.10;;
19883;SDS011;10104;50.732;10.174;2023-08-12T10:18:57;3.95;;;3.45;;
19883;SDS011;10104;50.732;10.174;2023-08-12T10:21:21;8.35;;;3.33;;
19883;SDS011;10104;50.732;10.174;2023-08-12T10:23:44;7.63;;;3.58;;
19883;SDS011;10104;50.732;10.174;2023-08-12T10:26:08;7.60;;;3.10;;
19883;SDS011;10104;50.732;10.174;2023-08-12T10:28:30;4.53;;;3.30;;
19883;SDS011;10104;50.732;10.174;2023-08-12T10:30:57;5.20;;;3.35;;
19883;SDS011;10104;50.732;10.174;2023-08-12T10:33:19;5.20;;;3.25;;
19883;SDS011;10104;50.732;10.174;2023-08-12T10:35:42;4.28;;;3.03;;
19883;SDS011;10104;50.732;10.174;2023-08-12T10:38:05;4.20;;;3.30;;
19883;SDS011;10104;50.732;10.174;2023-08-12T10:40:27;3.00;;;2.70;;
19883;SDS011;10104;50.732;10.174;2023-08-12T10:42:50;2.95;;;2.63;;
19883;SDS011;10104;50.732;10.174;2023-08-12T10:45:12;2.83;;;2.60;;
19883;SDS011;10104;50.732;10.174;2023-08-12T10:47:39;4.57;;;2.58;;
19883;SDS011;10104;50.732;10.174;2023-08-12T10:50:05;4.40;;;3.03;;
19883;SDS011;10104;50.732;10.174;2023-08-12T10:52:31;4.82;;;2.25;;
19883;SDS011;10104;50.732;10.174;2023-08-12T10:54:55;3.00;;;2.10;;
19883;SDS011;10104;50.732;10.174;2023-08-12T10:57:39;2.42;;;2.20;;
19883;SDS011;10104;50.732;10.174;2023-08-12T11:00:01;2.13;;;1.70;;
19883;SDS011;10104;50.732;10.174;2023-08-12T11:02:28;3.20;;;2.15;;
19883;SDS011;10104;50.732;10.174;2023-08-12T11:07:33;2.97;;;2.50;;
19883;SDS011;10104;50.732;10.174;2023-08-12T11:10:00;3.80;;;2.38;;
19883;SDS011;10104;50.732;10.174;2023-08-12T11:12:29;4.18;;;2.60;;
19883;SDS011;10104;50.732;10.174;2023-08-12T11:14:54;2.20;;;2.00;;
19883;SDS011;10104;50.732;10.174;2023-08-12T11:17:19;2.75;;;2.20;;
19883;SDS011;10104;50.732;10.174;2023-08-12T11:19:41;3.38;;;2.60;;
19883;SDS011;10104;50.732;10.174;2023-08-12T11:22:03;4.43;;;2.95;;
19883;SDS011;10104;50.732;10.174;2023-08-12T11:24:25;3.10;;;2.80;;
19883;SDS011;10104;50.732;10.174;2023-08-12T11:26:53;5.28;;;3.00;;
19883;SDS011;10104;50.732;10.174;2023-08-12T11:29:14;3.10;;;2.90;;
19883;SDS011;10104;50.732;10.174;2023-08-12T11:31:37;4.43;;;2.92;;
19883;SDS011;10104;50.732;10.174;2023-08-12T11:33:59;5.13;;;3.00;;
19883;SDS011;10104;50.732;10.174;2023-08-12T11:36:20;6.40;;;2.90;;
19883;SDS011;10104;50.732;10.174;2023-08-12T11:38:42;3.97;;;2.63;;
19883;SDS011;10104;50.732;10.174;2023-08-12T11:41:04;4.75;;;3.17;;
19883;SDS011;10104;50.732;10.174;2023-08-12T11:43:26;3.58;;;3.05;;
19883;SDS011;10104;50.732;10.174;2023-08-12T11:45:47;4.78;;;2.95;;
19883;SDS011;10104;50.732;10.174;2023-08-12T11:48:09;2.95;;;2.65;;
19883;SDS011;10104;50.732;10.174;2023-08-12T11:50:31;4.00;;;2.40;;
19883;SDS011;10104;50.732;10.174;2023-08-12T11:52:53;3.28;;;2.50;;
19883;SDS011;10104;50.732;10.174;2023-08-12T11:55:16;4.13;;;2.60;;
19883;SDS011;10104;50.732;10.174;2023-08-12T11:57:41;2.63;;;2.42;;
19883;SDS011;10104;50.732;10.174;2023-08-12T12:00:04;2.85;;;1.90;;
19883;SDS011;10104;50.732;10.174;2023-08-12T12:02:38;3.20;;;2.30;;
19883;SDS011;10104;50.732;10.174;2023-08-12T12:05:04;2.75;;;2.53;;
19883;SDS011;10104;50.732;10.174;2023-08-12T12:07:29;2.90;;;1.98;;
19883;SDS011;10104;50.732;10.174;2023-08-12T12:09:53;2.03;;;1.83;;
19883;SDS011;10104;50.732;10.174;2023-08-12T12:12:15;4.78;;;1.98;;
19883;SDS011;10104;50.732;10.174;2023-08-12T12:14:37;2.95;;;2.25;;
19883;SDS011;10104;50.732;10.174;2023-08-12T12:16:58;2.60;;;2.00;;
19883;SDS011;10104;50.732;10.174;2023-08-12T12:19:20;3.55;;;2.40;;
19883;SDS011;10104;50.732;10.174;2023-08-12T12:21:44;3.22;;;2.35;;
19883;SDS011;10104;50.732;10.174;2023-08-12T12:24:10;2.83;;;2.17;;
19883;SDS011;10104;50.732;10.174;2023-08-12T12:26:32;2.88;;;2.42;;
19883;SDS011;10104;50.732;10.174;2023-08-12T12:28:54;4.22;;;2.40;;
19883;SDS011;10104;50.732;10.174;2023-08-12T12:35:01;2.60;;;2.03;;
19883;SDS011;10104;50.732;10.174;2023-08-12T12:37:24;2.63;;;2.22;;
19883;SDS011;10104;50.732;10.174;2023-08-12T12:39:46;2.40;;;2.20;;
19883;SDS011;10104;50.732;10.174;2023-08-12T12:42:08;3.17;;;2.42;;
19883;SDS011;10104;50.732;10.174;2023-08-12T12:44:30;2.92;;;1.90;;
19883;SDS011;10104;50.732;10.174;2023-08-12T12:46:51;5.13;;;2.50;;
19883;SDS011;10104;50.732;10.174;2023-08-12T12:49:13;6.43;;;2.60;;
19883;SDS011;10104;50.732;10.174;2023-08-12T12:51:34;6.93;;;2.63;;
19883;SDS011;10104;50.732;10.174;2023-08-12T12:53:56;3.53;;;2.30;;
19883;SDS011;10104;50.732;10.174;2023-08-12T12:56:18;4.43;;;2.40;;
19883;SDS011;10104;50.732;10.174;2023-08-12T12:58:39;5.63;;;2.50;;
19883;SDS011;10104;50.732;10.174;2023-08-12T13:01:01;3.50;;;2.63;;
19883;SDS011;10104;50.732;10.174;2023-08-12T13:03:23;4.05;;;2.85;;
19883;SDS011;10104;50.732;10.174;2023-08-12T13:05:45;3.80;;;2.63;;
19883;SDS011;10104;50.732;10.174;2023-08-12T13:08:07;3.28;;;2.60;;
19883;SDS011;10104;50.732;10.174;2023-08-12T13:10:29;6.07;;;3.10;;
19883;SDS011;10104;50.732;10.174;2023-08-12T13:12:50;5.45;;;2.70;;
19883;SDS011;10104;50.732;10.174;2023-08-12T13:15:12;6.35;;;3.22;;
19883;SDS011;10104;50.732;10.174;2023-08-12T13:17:33;5.85;;;3.20;;
19883;SDS011;10104;50.732;10.174;2023-08-12T13:19:55;3.15;;;2.80;;
19883;SDS011;10104;50.732;10.174;2023-08-12T13:22:16;4.25;;;2.58;;
19883;SDS011;10104;50.732;10.174;2023-08-12T13:24:38;6.28;;;2.80;;
19883;SDS011;10104;50.732;10.174;2023-08-12T13:27:00;5.47;;;3.08;;
19883;SDS011;10104;50.732;10.174;2023-08-12T13:29:22;7.97;;;2.78;;
19883;SDS011;10104;50.732;10.174;2023-08-12T13:31:43;4.82;;;2.72;;
19883;SDS011;10104;50.732;10.174;2023-08-12T13:34:05;3.85;;;2.67;;
19883;SDS011;10104;50.732;10.174;2023-08-12T13:36:27;6.80;;;2.75;;
19883;SDS011;10104;50.732;10.174;2023-08-12T13:38:48;6.90;;;2.75;;
19883;SDS011;10104;50.732;10.174;2023-08-12T13:41:10;3.75;;;2.85;;
19883;SDS011;10104;50.732;10.174;2023-08-12T13:43:31;5.75;;;3.08;;
19883;SDS011;10104;50.732;10.174;2023-08-12T13:45:53;4.60;;;2.72;;
19883;SDS011;10104;50.732;10.174;2023-08-12T13:48:14;4.35;;;3.15;;
19883;SDS011;10104;50.732;10.174;2023-08-12T13:50:36;4.35;;;3.10;;
19883;SDS011;10104;50.732;10.174;2023-08-12T13:52:58;4.88;;;3.00;;
19883;SDS011;10104;50.732;10.174;2023-08-12T13:55:20;5.05;;;3.17;;
19883;SDS011;10104;50.732;10.174;2023-08-12T13:57:41;7.85;;;2.67;;
19883;SDS011;10104;50.732;10.174;2023-08-12T14:00:03;3.20;;;2.88;;
19883;SDS011;10104;50.732;10.174;2023-08-12T14:02:30;5.20;;;2.72;;
19883;SDS011;10104;50.732;10.174;2023-08-12T14:04:52;5.28;;;2.80;;
19883;SDS011;10104;50.732;10.174;2023-08-12T14:07:13;4.25;;;2.70;;
19883;SDS011;10104;50.732;10.174;2023-08-12T14:09:35;3.05;;;2.65;;
19883;SDS011;10104;50.732;10.174;2023-08-12T14:11:57;4.18;;;2.83;;
19883;SDS011;10104;50.732;10.174;2023-08-12T14:14:19;3.95;;;2.50;;